sensor_id;sensor_type;location;lat;lon;timestamp;pressure;altitude;pressure_sealevel;temperature;humidity
48652;BME280;34442;52.362;-1.302;2022-10-19T00:03:34;101401.69;;;12.84;100.00
48652;BME280;34442;52.362;-1.302;2022-10-19T00:06:10;101390.53;;;12.94;100.00
48652;BME280;34442;52.362;-1.302;2022-10-19T00:08:36;101397.34;;;12.89;100.00
48652;BME280;34442;52.362;-1.302;2022-10-19T00:11:02;101395.63;;;12.82;100.00
48652;BME280;34442;52.362;-1.302;2022-10-19T00:13:28;101386.06;;;12.79;100.00
48652;BME280;34442;52.362;-1.302;2022-10-19T00:15:54;101372.41;;;12.87;100.00
48652;BME280;34442;52.362;-1.302;2022-10-19T00:18:20;101363.09;;;12.90;100.00
48652;BME280;34442;52.362;-1.302;2022-10-19T00:20:46;101375.63;;;12.70;100.00
48652;BME280;34442;52.362;-1.302;2022-10-19T00:23:12;101357.03;;;12.81;100.00
48652;BME280;34442;52.362;-1.302;2022-10-19T00:25:38;101357.91;;;12.88;100.00
48652;BME280;34442;52.362;-1.302;2022-10-19T00:28:04;101354.38;;;12.88;100.00
48652;BME280;34442;52.362;-1.302;2022-10-19T00:30:30;101345.09;;;12.97;100.00
48652;BME280;34442;52.362;-1.302;2022-10-19T00:32:56;101351.03;;;12.86;100.00
48652;BME280;34442;52.362;-1.302;2022-10-19T00:35:22;101347.56;;;12.92;100.00
48652;BME280;34442;52.362;-1.302;2022-10-19T00:37:48;101348.72;;;12.83;100.00
48652;BME280;34442;52.362;-1.302;2022-10-19T00:40:14;101358.66;;;12.76;100.00
48652;BME280;34442;52.362;-1.302;2022-10-19T00:42:40;101356.22;;;12.87;100.00
48652;BME280;34442;52.362;-1.302;2022-10-19T00:45:14;101345.47;;;12.94;100.00
48652;BME280;34442;52.362;-1.302;2022-10-19T00:47:41;101333.38;;;12.83;100.00
48652;BME280;34442;52.362;-1.302;2022-10-19T00:50:09;101335.22;;;12.76;100.00
48652;BME280;34442;52.362;-1.302;2022-10-19T00:52:38;101334.63;;;12.81;100.00
48652;BME280;34442;52.362;-1.302;2022-10-19T00:55:06;101326.31;;;12.82;100.00
48652;BME280;34442;52.362;-1.302;2022-10-19T00:57:32;101324.41;;;12.76;100.00
48652;BME280;34442;52.362;-1.302;2022-10-19T00:59:59;101323.44;;;12.84;100.00
48652;BME280;34442;52.362;-1.302;2022-10-19T01:02:27;101316.56;;;12.81;100.00
48652;BME280;34442;52.362;-1.302;2022-10-19T01:04:53;101320.75;;;12.90;100.00
48652;BME280;34442;52.362;-1.302;2022-10-19T01:07:20;101313.19;;;12.79;100.00
48652;BME280;34442;52.362;-1.302;2022-10-19T01:09:48;101310.09;;;12.76;100.00
48652;BME280;34442;52.362;-1.302;2022-10-19T01:12:18;101315.06;;;12.72;100.00
48652;BME280;34442;52.362;-1.302;2022-10-19T01:32:26;101284.84;;;12.55;100.00
48652;BME280;34442;52.362;-1.302;2022-10-19T01:35:24;101290.81;;;12.51;100.00
48652;BME280;34442;52.362;-1.302;2022-10-19T01:41:10;101297.38;;;12.70;100.00
48652;BME280;34442;52.362;-1.302;2022-10-19T01:43:53;101289.44;;;12.61;100.00
48652;BME280;34442;52.362;-1.302;2022-10-19T01:46:40;101284.88;;;12.62;100.00
48652;BME280;34442;52.362;-1.302;2022-10-19T01:49:28;101277.88;;;12.68;100.00
48652;BME280;34442;52.362;-1.302;2022-10-19T01:52:01;101280.13;;;12.64;100.00
48652;BME280;34442;52.362;-1.302;2022-10-19T01:54:35;101285.09;;;12.60;100.00
48652;BME280;34442;52.362;-1.302;2022-10-19T01:57:05;101286.31;;;12.58;100.00
48652;BME280;34442;52.362;-1.302;2022-10-19T01:59:32;101288.56;;;12.54;100.00
48652;BME280;34442;52.362;-1.302;2022-10-19T02:02:01;101286.16;;;12.66;100.00
48652;BME280;34442;52.362;-1.302;2022-10-19T02:04:29;101279.72;;;12.67;100.00
48652;BME280;34442;52.362;-1.302;2022-10-19T02:06:56;101278.09;;;12.73;100.00
48652;BME280;34442;52.362;-1.302;2022-10-19T02:09:22;101276.03;;;12.75;100.00
48652;BME280;34442;52.362;-1.302;2022-10-19T02:11:51;101272.72;;;12.79;100.00
48652;BME280;34442;52.362;-1.302;2022-10-19T02:14:22;101261.09;;;12.72;100.00
48652;BME280;34442;52.362;-1.302;2022-10-19T02:17:18;101260.94;;;12.80;100.00
48652;BME280;34442;52.362;-1.302;2022-10-19T02:19:46;101259.00;;;12.74;100.00
48652;BME280;34442;52.362;-1.302;2022-10-19T02:22:12;101252.31;;;12.63;100.00
48652;BME280;34442;52.362;-1.302;2022-10-19T02:24:38;101252.13;;;12.65;100.00
48652;BME280;34442;52.362;-1.302;2022-10-19T02:27:06;101243.41;;;12.70;100.00
48652;BME280;34442;52.362;-1.302;2022-10-19T02:29:33;101233.63;;;12.62;100.00
48652;BME280;34442;52.362;-1.302;2022-10-19T02:32:01;101230.84;;;12.49;100.00
48652;BME280;34442;52.362;-1.302;2022-10-19T02:34:28;101232.25;;;12.73;100.00
48652;BME280;34442;52.362;-1.302;2022-10-19T02:36:55;101233.91;;;12.74;100.00
48652;BME280;34442;52.362;-1.302;2022-10-19T02:39:21;101222.09;;;12.47;100.00
48652;BME280;34442;52.362;-1.302;2022-10-19T02:42:10;101221.84;;;12.70;100.00
48652;BME280;34442;52.362;-1.302;2022-10-19T02:44:49;101213.97;;;12.68;100.00
48652;BME280;34442;52.362;-1.302;2022-10-19T02:47:26;101213.13;;;12.68;100.00
48652;BME280;34442;52.362;-1.302;2022-10-19T02:49:54;101214.13;;;12.60;100.00
48652;BME280;34442;52.362;-1.302;2022-10-19T02:52:20;101213.28;;;12.59;100.00
48652;BME280;34442;52.362;-1.302;2022-10-19T02:54:46;101218.94;;;12.71;100.00
48652;BME280;34442;52.362;-1.302;2022-10-19T02:57:19;101227.03;;;12.71;100.00
48652;BME280;34442;52.362;-1.302;2022-10-19T02:59:46;101228.22;;;12.62;100.00
48652;BME280;34442;52.362;-1.302;2022-10-19T03:02:12;101226.63;;;12.68;100.00
48652;BME280;34442;52.362;-1.302;2022-10-19T03:04:38;101229.72;;;12.71;100.00
48652;BME280;34442;52.362;-1.302;2022-10-19T03:07:07;101224.75;;;12.68;100.00
48652;BME280;34442;52.362;-1.302;2022-10-19T03:09:35;101227.91;;;12.78;100.00
48652;BME280;34442;52.362;-1.302;2022-10-19T03:12:01;101239.50;;;12.72;100.00
48652;BME280;34442;52.362;-1.302;2022-10-19T03:14:27;101237.63;;;12.73;100.00
48652;BME280;34442;52.362;-1.302;2022-10-19T03:16:53;101231.13;;;12.60;100.00
48652;BME280;34442;52.362;-1.302;2022-10-19T03:19:19;101224.50;;;12.63;100.00
48652;BME280;34442;52.362;-1.302;2022-10-19T03:21:45;101215.00;;;12.74;100.00
48652;BME280;34442;52.362;-1.302;2022-10-19T03:24:12;101215.22;;;12.72;100.00
48652;BME280;34442;52.362;-1.302;2022-10-19T03:26:37;101209.00;;;12.78;100.00
48652;BME280;34442;52.362;-1.302;2022-10-19T03:29:04;101205.88;;;12.75;100.00
48652;BME280;34442;52.362;-1.302;2022-10-19T03:31:30;101202.34;;;12.68;100.00
48652;BME280;34442;52.362;-1.302;2022-10-19T03:33:55;101196.09;;;12.67;100.00
48652;BME280;34442;52.362;-1.302;2022-10-19T03:36:23;101195.50;;;12.72;100.00
48652;BME280;34442;52.362;-1.302;2022-10-19T03:38:53;101194.25;;;12.74;100.00
48652;BME280;34442;52.362;-1.302;2022-10-19T03:41:21;101205.88;;;12.68;100.00
48652;BME280;34442;52.362;-1.302;2022-10-19T03:43:48;101204.16;;;12.60;100.00
48652;BME280;34442;52.362;-1.302;2022-10-19T03:46:14;101190.94;;;12.72;100.00
48652;BME280;34442;52.362;-1.302;2022-10-19T03:48:40;101185.50;;;12.65;100.00
48652;BME280;34442;52.362;-1.302;2022-10-19T03:51:11;101177.63;;;12.71;100.00
48652;BME280;34442;52.362;-1.302;2022-10-19T03:53:38;101186.16;;;12.74;100.00
48652;BME280;34442;52.362;-1.302;2022-10-19T03:56:16;101163.97;;;12.72;100.00
48652;BME280;34442;52.362;-1.302;2022-10-19T03:58:44;101158.91;;;12.62;100.00
48652;BME280;34442;52.362;-1.302;2022-10-19T04:01:13;101161.88;;;12.68;100.00
48652;BME280;34442;52.362;-1.302;2022-10-19T04:03:40;101155.97;;;12.51;100.00
48652;BME280;34442;52.362;-1.302;2022-10-19T04:06:09;101161.00;;;12.60;100.00
48652;BME280;34442;52.362;-1.302;2022-10-19T04:08:37;101156.44;;;12.61;100.00
48652;BME280;34442;52.362;-1.302;2022-10-19T04:11:06;101151.41;;;12.51;100.00
48652;BME280;34442;52.362;-1.302;2022-10-19T04:13:32;101154.31;;;12.50;100.00
48652;BME280;34442;52.362;-1.302;2022-10-19T04:15:59;101152.00;;;12.47;100.00
48652;BME280;34442;52.362;-1.302;2022-10-19T04:18:25;101143.50;;;12.50;100.00
48652;BME280;34442;52.362;-1.302;2022-10-19T04:20:59;101135.75;;;12.33;100.00
48652;BME280;34442;52.362;-1.302;2022-10-19T04:23:25;101136.84;;;12.46;100.00
48652;BME280;34442;52.362;-1.302;2022-10-19T04:25:57;101143.34;;;12.51;100.00
48652;BME280;34442;52.362;-1.302;2022-10-19T04:28:26;101141.16;;;12.33;100.00
48652;BME280;34442;52.362;-1.302;2022-10-19T04:30:52;101127.72;;;12.47;100.00
48652;BME280;34442;52.362;-1.302;2022-10-19T04:33:18;101123.97;;;12.41;100.00
48652;BME280;34442;52.362;-1.302;2022-10-19T04:35:44;101118.56;;;12.34;100.00
48652;BME280;34442;52.362;-1.302;2022-10-19T04:38:10;101116.28;;;12.38;100.00
48652;BME280;34442;52.362;-1.302;2022-10-19T04:40:36;101106.78;;;12.49;100.00
48652;BME280;34442;52.362;-1.302;2022-10-19T04:43:03;101112.53;;;12.32;100.00
48652;BME280;34442;52.362;-1.302;2022-10-19T04:45:30;101121.84;;;12.30;100.00
48652;BME280;34442;52.362;-1.302;2022-10-19T04:47:56;101121.28;;;12.41;100.00
48652;BME280;34442;52.362;-1.302;2022-10-19T04:50:23;101122.09;;;12.41;100.00
48652;BME280;34442;52.362;-1.302;2022-10-19T04:52:49;101123.84;;;12.56;100.00
48652;BME280;34442;52.362;-1.302;2022-10-19T04:55:15;101125.72;;;12.55;100.00
48652;BME280;34442;52.362;-1.302;2022-10-19T04:57:42;101123.59;;;12.51;100.00
48652;BME280;34442;52.362;-1.302;2022-10-19T05:00:08;101132.63;;;12.30;100.00
48652;BME280;34442;52.362;-1.302;2022-10-19T05:02:34;101127.31;;;12.43;100.00
48652;BME280;34442;52.362;-1.302;2022-10-19T05:05:00;101131.84;;;12.42;100.00
48652;BME280;34442;52.362;-1.302;2022-10-19T05:07:29;101125.06;;;12.53;100.00
48652;BME280;34442;52.362;-1.302;2022-10-19T05:09:55;101116.38;;;12.58;100.00
48652;BME280;34442;52.362;-1.302;2022-10-19T05:12:21;101116.53;;;12.50;100.00
48652;BME280;34442;52.362;-1.302;2022-10-19T05:14:47;101113.88;;;12.63;100.00
48652;BME280;34442;52.362;-1.302;2022-10-19T05:17:13;101125.03;;;12.47;100.00
48652;BME280;34442;52.362;-1.302;2022-10-19T05:19:39;101121.97;;;12.56;100.00
48652;BME280;34442;52.362;-1.302;2022-10-19T05:22:05;101130.94;;;12.70;100.00
48652;BME280;34442;52.362;-1.302;2022-10-19T05:24:31;101126.63;;;12.76;100.00
48652;BME280;34442;52.362;-1.302;2022-10-19T05:26:57;101132.38;;;12.66;100.00
48652;BME280;34442;52.362;-1.302;2022-10-19T05:29:23;101133.69;;;12.77;100.00
48652;BME280;34442;52.362;-1.302;2022-10-19T05:31:49;101127.66;;;12.81;100.00
48652;BME280;34442;52.362;-1.302;2022-10-19T05:34:15;101116.88;;;12.81;100.00
48652;BME280;34442;52.362;-1.302;2022-10-19T05:36:41;101107.09;;;12.74;100.00
48652;BME280;34442;52.362;-1.302;2022-10-19T05:39:11;101113.53;;;12.79;100.00
48652;BME280;34442;52.362;-1.302;2022-10-19T05:41:38;101100.22;;;12.64;100.00
48652;BME280;34442;52.362;-1.302;2022-10-19T05:44:04;101102.09;;;12.71;100.00
48652;BME280;34442;52.362;-1.302;2022-10-19T05:46:31;101109.81;;;12.80;100.00
48652;BME280;34442;52.362;-1.302;2022-10-19T05:48:58;101102.09;;;12.71;100.00
48652;BME280;34442;52.362;-1.302;2022-10-19T05:51:26;101093.81;;;12.79;100.00
48652;BME280;34442;52.362;-1.302;2022-10-19T05:53:53;101090.00;;;12.53;100.00
48652;BME280;34442;52.362;-1.302;2022-10-19T05:56:30;101086.47;;;12.53;100.00
48652;BME280;34442;52.362;-1.302;2022-10-19T05:58:58;101093.34;;;12.62;100.00
48652;BME280;34442;52.362;-1.302;2022-10-19T06:01:25;101085.44;;;12.54;100.00
48652;BME280;34442;52.362;-1.302;2022-10-19T06:03:53;101077.53;;;12.46;100.00
48652;BME280;34442;52.362;-1.302;2022-10-19T06:06:20;101071.13;;;12.53;100.00
48652;BME280;34442;52.362;-1.302;2022-10-19T06:08:46;101068.00;;;12.50;100.00
48652;BME280;34442;52.362;-1.302;2022-10-19T06:11:25;101065.13;;;12.58;100.00
48652;BME280;34442;52.362;-1.302;2022-10-19T06:13:54;101063.06;;;12.60;100.00
48652;BME280;34442;52.362;-1.302;2022-10-19T06:16:22;101062.19;;;12.53;100.00
48652;BME280;34442;52.362;-1.302;2022-10-19T06:18:49;101055.34;;;12.44;100.00
48652;BME280;34442;52.362;-1.302;2022-10-19T06:21:17;101055.78;;;12.54;100.00
48652;BME280;34442;52.362;-1.302;2022-10-19T06:23:43;101047.47;;;12.49;100.00
48652;BME280;34442;52.362;-1.302;2022-10-19T06:26:12;101049.16;;;12.56;100.00
48652;BME280;34442;52.362;-1.302;2022-10-19T06:28:40;101040.59;;;12.46;100.00
48652;BME280;34442;52.362;-1.302;2022-10-19T06:31:07;101036.69;;;12.49;100.00
48652;BME280;34442;52.362;-1.302;2022-10-19T06:33:33;101031.91;;;12.51;100.00
48652;BME280;34442;52.362;-1.302;2022-10-19T06:36:17;101018.84;;;12.48;100.00
48652;BME280;34442;52.362;-1.302;2022-10-19T06:38:44;101019.84;;;12.47;100.00
48652;BME280;34442;52.362;-1.302;2022-10-19T06:41:11;101009.06;;;12.40;100.00
48652;BME280;34442;52.362;-1.302;2022-10-19T06:43:38;101003.00;;;12.25;100.00
48652;BME280;34442;52.362;-1.302;2022-10-19T06:46:05;101004.69;;;12.32;100.00
48652;BME280;34442;52.362;-1.302;2022-10-19T06:48:32;101003.06;;;12.45;100.00
48652;BME280;34442;52.362;-1.302;2022-10-19T06:50:59;101007.41;;;12.46;100.00
48652;BME280;34442;52.362;-1.302;2022-10-19T06:53:26;101000.34;;;12.38;100.00
48652;BME280;34442;52.362;-1.302;2022-10-19T06:56:01;100998.06;;;12.35;100.00
48652;BME280;34442;52.362;-1.302;2022-10-19T06:58:27;101002.84;;;12.39;100.00
48652;BME280;34442;52.362;-1.302;2022-10-19T07:00:57;100999.97;;;12.48;100.00
48652;BME280;34442;52.362;-1.302;2022-10-19T07:03:25;100998.53;;;12.65;100.00
48652;BME280;34442;52.362;-1.302;2022-10-19T07:05:55;101013.25;;;12.62;100.00
48652;BME280;34442;52.362;-1.302;2022-10-19T07:08:22;101001.03;;;12.60;100.00
48652;BME280;34442;52.362;-1.302;2022-10-19T07:10:56;101003.47;;;12.55;100.00
48652;BME280;34442;52.362;-1.302;2022-10-19T07:13:23;101000.50;;;12.30;100.00
48652;BME280;34442;52.362;-1.302;2022-10-19T07:15:59;100990.00;;;12.55;100.00
48652;BME280;34442;52.362;-1.302;2022-10-19T07:18:27;100984.19;;;12.45;100.00
48652;BME280;34442;52.362;-1.302;2022-10-19T07:20:57;100972.78;;;12.49;100.00
48652;BME280;34442;52.362;-1.302;2022-10-19T07:23:25;100979.22;;;12.55;100.00
48652;BME280;34442;52.362;-1.302;2022-10-19T07:25:51;100977.19;;;12.63;100.00
48652;BME280;34442;52.362;-1.302;2022-10-19T07:28:20;100977.78;;;12.52;100.00
48652;BME280;34442;52.362;-1.302;2022-10-19T07:30:46;100968.22;;;12.63;100.00
48652;BME280;34442;52.362;-1.302;2022-10-19T07:33:12;100978.44;;;12.68;100.00
48652;BME280;34442;52.362;-1.302;2022-10-19T07:35:38;100969.69;;;12.52;100.00
48652;BME280;34442;52.362;-1.302;2022-10-19T07:38:04;100960.16;;;12.76;100.00
48652;BME280;34442;52.362;-1.302;2022-10-19T07:40:30;100976.13;;;12.71;100.00
48652;BME280;34442;52.362;-1.302;2022-10-19T07:42:56;100969.28;;;12.62;100.00
48652;BME280;34442;52.362;-1.302;2022-10-19T07:45:22;100982.97;;;12.67;100.00
48652;BME280;34442;52.362;-1.302;2022-10-19T07:47:49;100958.06;;;12.58;100.00
48652;BME280;34442;52.362;-1.302;2022-10-19T07:50:15;100960.97;;;12.83;100.00
48652;BME280;34442;52.362;-1.302;2022-10-19T07:52:41;100964.94;;;12.87;100.00
48652;BME280;34442;52.362;-1.302;2022-10-19T07:55:07;100975.31;;;12.97;100.00
48652;BME280;34442;52.362;-1.302;2022-10-19T07:57:34;100967.00;;;12.99;100.00
48652;BME280;34442;52.362;-1.302;2022-10-19T08:00:00;100977.19;;;12.97;100.00
48652;BME280;34442;52.362;-1.302;2022-10-19T08:02:27;100973.47;;;12.84;100.00
48652;BME280;34442;52.362;-1.302;2022-10-19T08:04:52;100968.66;;;13.00;100.00
48652;BME280;34442;52.362;-1.302;2022-10-19T08:07:18;100959.72;;;13.19;100.00
48652;BME280;34442;52.362;-1.302;2022-10-19T08:09:44;100963.91;;;13.02;100.00
48652;BME280;34442;52.362;-1.302;2022-10-19T08:12:11;100963.06;;;13.08;100.00
48652;BME280;34442;52.362;-1.302;2022-10-19T08:14:37;100959.97;;;12.98;100.00
48652;BME280;34442;52.362;-1.302;2022-10-19T08:17:03;100953.72;;;13.17;100.00
48652;BME280;34442;52.362;-1.302;2022-10-19T08:19:29;100946.88;;;13.21;100.00
48652;BME280;34442;52.362;-1.302;2022-10-19T08:21:55;100942.06;;;13.16;100.00
48652;BME280;34442;52.362;-1.302;2022-10-19T08:24:21;100948.09;;;13.19;100.00
48652;BME280;34442;52.362;-1.302;2022-10-19T08:26:47;100949.97;;;13.38;100.00
48652;BME280;34442;52.362;-1.302;2022-10-19T08:29:18;100941.88;;;13.38;100.00
48652;BME280;34442;52.362;-1.302;2022-10-19T08:31:46;100966.19;;;13.38;100.00
48652;BME280;34442;52.362;-1.302;2022-10-19T08:34:13;100957.84;;;13.39;100.00
48652;BME280;34442;52.362;-1.302;2022-10-19T08:36:39;100961.81;;;13.50;100.00
48652;BME280;34442;52.362;-1.302;2022-10-19T08:39:07;100964.88;;;13.60;100.00
48652;BME280;34442;52.362;-1.302;2022-10-19T08:41:52;100969.72;;;13.38;100.00
48652;BME280;34442;52.362;-1.302;2022-10-19T08:49:52;100940.09;;;13.77;100.00
48652;BME280;34442;52.362;-1.302;2022-10-19T08:52:37;100944.72;;;13.63;100.00
48652;BME280;34442;52.362;-1.302;2022-10-19T08:55:12;100936.63;;;13.56;100.00
48652;BME280;34442;52.362;-1.302;2022-10-19T08:57:51;100935.56;;;13.64;100.00
48652;BME280;34442;52.362;-1.302;2022-10-19T09:03:18;100944.44;;;13.78;100.00
48652;BME280;34442;52.362;-1.302;2022-10-19T09:05:56;100937.31;;;13.97;100.00
48652;BME280;34442;52.362;-1.302;2022-10-19T09:08:25;100943.59;;;13.84;100.00
48652;BME280;34442;52.362;-1.302;2022-10-19T09:10:52;100931.28;;;13.95;100.00
48652;BME280;34442;52.362;-1.302;2022-10-19T09:13:41;100915.28;;;13.86;100.00
48652;BME280;34442;52.362;-1.302;2022-10-19T09:16:12;100904.47;;;13.93;100.00
48652;BME280;34442;52.362;-1.302;2022-10-19T09:18:39;100904.13;;;13.83;100.00
48652;BME280;34442;52.362;-1.302;2022-10-19T09:22:11;100906.16;;;13.87;100.00
48652;BME280;34442;52.362;-1.302;2022-10-19T09:24:41;100921.69;;;13.99;100.00
48652;BME280;34442;52.362;-1.302;2022-10-19T09:27:29;100923.63;;;13.85;100.00
48652;BME280;34442;52.362;-1.302;2022-10-19T09:30:02;100924.13;;;14.07;100.00
48652;BME280;34442;52.362;-1.302;2022-10-19T09:32:38;100917.00;;;14.19;100.00
48652;BME280;34442;52.362;-1.302;2022-10-19T09:35:14;100927.03;;;14.12;100.00
48652;BME280;34442;52.362;-1.302;2022-10-19T09:37:45;100922.66;;;14.11;100.00
48652;BME280;34442;52.362;-1.302;2022-10-19T09:40:19;100919.25;;;14.29;100.00
48652;BME280;34442;52.362;-1.302;2022-10-19T09:42:45;100912.13;;;14.34;100.00
48652;BME280;34442;52.362;-1.302;2022-10-19T09:45:39;100910.75;;;14.19;100.00
48652;BME280;34442;52.362;-1.302;2022-10-19T09:48:32;100912.03;;;14.16;100.00
48652;BME280;34442;52.362;-1.302;2022-10-19T09:51:02;100897.19;;;14.32;100.00
48652;BME280;34442;52.362;-1.302;2022-10-19T09:53:31;100902.69;;;14.50;100.00
48652;BME280;34442;52.362;-1.302;2022-10-19T09:56:06;100891.66;;;14.45;100.00
48652;BME280;34442;52.362;-1.302;2022-10-19T09:58:33;100892.94;;;14.43;100.00
48652;BME280;34442;52.362;-1.302;2022-10-19T10:01:01;100892.94;;;14.43;100.00
48652;BME280;34442;52.362;-1.302;2022-10-19T10:03:30;100877.78;;;14.35;100.00
48652;BME280;34442;52.362;-1.302;2022-10-19T10:06:01;100890.91;;;14.31;100.00
48652;BME280;34442;52.362;-1.302;2022-10-19T10:08:35;100888.94;;;14.20;100.00
48652;BME280;34442;52.362;-1.302;2022-10-19T10:11:05;100889.47;;;14.60;100.00
48652;BME280;34442;52.362;-1.302;2022-10-19T10:13:40;100886.28;;;14.38;100.00
48652;BME280;34442;52.362;-1.302;2022-10-19T10:16:09;100887.72;;;14.73;100.00
48652;BME280;34442;52.362;-1.302;2022-10-19T10:18:58;100883.47;;;14.83;100.00
48652;BME280;34442;52.362;-1.302;2022-10-19T10:22:00;100883.31;;;14.78;100.00
48652;BME280;34442;52.362;-1.302;2022-10-19T10:24:25;100882.03;;;14.81;100.00
48652;BME280;34442;52.362;-1.302;2022-10-19T10:26:56;100887.72;;;14.98;100.00
48652;BME280;34442;52.362;-1.302;2022-10-19T10:29:33;100889.66;;;15.09;100.00
48652;BME280;34442;52.362;-1.302;2022-10-19T10:32:12;100883.19;;;14.92;100.00
48652;BME280;34442;52.362;-1.302;2022-10-19T10:35:05;100877.13;;;15.14;100.00
48652;BME280;34442;52.362;-1.302;2022-10-19T10:40:02;100864.94;;;15.42;100.00
48652;BME280;34442;52.362;-1.302;2022-10-19T10:42:55;100865.47;;;15.32;100.00
48652;BME280;34442;52.362;-1.302;2022-10-19T10:47:49;100861.59;;;15.58;100.00
48652;BME280;34442;52.362;-1.302;2022-10-19T10:50:23;100857.38;;;15.62;100.00
48652;BME280;34442;52.362;-1.302;2022-10-19T10:53:02;100859.69;;;15.66;100.00
48652;BME280;34442;52.362;-1.302;2022-10-19T10:55:29;100855.97;;;15.42;100.00
48652;BME280;34442;52.362;-1.302;2022-10-19T11:00:37;100856.28;;;15.33;100.00
48652;BME280;34442;52.362;-1.302;2022-10-19T11:03:27;100832.28;;;15.37;100.00
48652;BME280;34442;52.362;-1.302;2022-10-19T11:05:58;100843.13;;;15.37;100.00
48652;BME280;34442;52.362;-1.302;2022-10-19T11:08:35;100841.03;;;15.39;100.00
48652;BME280;34442;52.362;-1.302;2022-10-19T11:16:14;100845.19;;;15.72;100.00
48652;BME280;34442;52.362;-1.302;2022-10-19T11:18:47;100841.44;;;15.54;100.00
48652;BME280;34442;52.362;-1.302;2022-10-19T11:21:25;100835.00;;;15.85;100.00
48652;BME280;34442;52.362;-1.302;2022-10-19T11:24:21;100843.91;;;15.74;100.00
48652;BME280;34442;52.362;-1.302;2022-10-19T11:35:20;100795.00;;;16.23;100.00
48652;BME280;34442;52.362;-1.302;2022-10-19T11:40:40;100778.25;;;16.37;100.00
48652;BME280;34442;52.362;-1.302;2022-10-19T11:46:00;100772.25;;;16.47;100.00
48652;BME280;34442;52.362;-1.302;2022-10-19T11:48:45;100757.84;;;16.23;100.00
48652;BME280;34442;52.362;-1.302;2022-10-19T11:56:37;100705.59;;;16.16;100.00
48652;BME280;34442;52.362;-1.302;2022-10-19T12:05:05;100674.56;;;16.24;100.00
48652;BME280;34442;52.362;-1.302;2022-10-19T12:08:10;100664.63;;;16.53;100.00
48652;BME280;34442;52.362;-1.302;2022-10-19T12:13:28;100650.25;;;16.52;100.00
48652;BME280;34442;52.362;-1.302;2022-10-19T12:15:58;100634.00;;;16.29;100.00
48652;BME280;34442;52.362;-1.302;2022-10-19T12:18:33;100644.72;;;16.35;100.00
48652;BME280;34442;52.362;-1.302;2022-10-19T12:21:03;100628.69;;;16.34;100.00
48652;BME280;34442;52.362;-1.302;2022-10-19T12:23:36;100621.38;;;16.34;100.00
48652;BME280;34442;52.362;-1.302;2022-10-19T12:26:06;100626.31;;;16.37;100.00
48652;BME280;34442;52.362;-1.302;2022-10-19T12:28:36;100618.59;;;16.58;100.00
48652;BME280;34442;52.362;-1.302;2022-10-19T12:31:05;100608.59;;;16.47;100.00
48652;BME280;34442;52.362;-1.302;2022-10-19T12:36:48;100596.47;;;16.78;100.00
48652;BME280;34442;52.362;-1.302;2022-10-19T12:47:31;100607.59;;;16.76;100.00
48652;BME280;34442;52.362;-1.302;2022-10-19T12:49:58;100607.31;;;16.37;100.00
48652;BME280;34442;52.362;-1.302;2022-10-19T12:55:31;100600.84;;;16.27;98.10
48652;BME280;34442;52.362;-1.302;2022-10-19T12:58:25;100582.88;;;16.37;97.55
48652;BME280;34442;52.362;-1.302;2022-10-19T13:01:03;100577.44;;;16.49;100.00
48652;BME280;34442;52.362;-1.302;2022-10-19T13:03:34;100573.88;;;16.60;100.00
48652;BME280;34442;52.362;-1.302;2022-10-19T13:06:11;100561.38;;;16.59;100.00
48652;BME280;34442;52.362;-1.302;2022-10-19T13:08:45;100549.25;;;16.50;100.00
48652;BME280;34442;52.362;-1.302;2022-10-19T13:11:13;100549.72;;;16.47;100.00
48652;BME280;34442;52.362;-1.302;2022-10-19T13:13:59;100537.28;;;16.63;100.00
48652;BME280;34442;52.362;-1.302;2022-10-19T13:27:25;100493.41;;;16.54;93.93
48652;BME280;34442;52.362;-1.302;2022-10-19T13:29:51;100497.22;;;16.70;100.00
48652;BME280;34442;52.362;-1.302;2022-10-19T13:38:30;100496.44;;;16.58;92.90
48652;BME280;34442;52.362;-1.302;2022-10-19T13:41:10;100475.00;;;16.28;98.28
48652;BME280;34442;52.362;-1.302;2022-10-19T13:47:27;100462.56;;;16.60;91.32
48652;BME280;34442;52.362;-1.302;2022-10-19T13:52:49;100454.38;;;16.72;94.09
48652;BME280;34442;52.362;-1.302;2022-10-19T14:09:31;100423.25;;;16.46;87.65
48652;BME280;34442;52.362;-1.302;2022-10-19T14:12:33;100421.53;;;16.57;92.54
48652;BME280;34442;52.362;-1.302;2022-10-19T14:15:11;100416.28;;;16.67;92.86
48652;BME280;34442;52.362;-1.302;2022-10-19T14:17:41;100423.25;;;16.63;97.28
48652;BME280;34442;52.362;-1.302;2022-10-19T14:22:50;100399.34;;;16.77;96.91
48652;BME280;34442;52.362;-1.302;2022-10-19T14:25:20;100398.91;;;16.51;96.75
48652;BME280;34442;52.362;-1.302;2022-10-19T14:27:53;100410.44;;;16.58;93.92
48652;BME280;34442;52.362;-1.302;2022-10-19T14:30:23;100396.88;;;16.58;95.73
48652;BME280;34442;52.362;-1.302;2022-10-19T14:32:50;100413.28;;;16.52;95.31
48652;BME280;34442;52.362;-1.302;2022-10-19T14:35:30;100394.78;;;16.49;93.06
48652;BME280;34442;52.362;-1.302;2022-10-19T14:37:58;100381.97;;;16.61;95.40
48652;BME280;34442;52.362;-1.302;2022-10-19T14:42:51;100392.50;;;16.74;95.87
48652;BME280;34442;52.362;-1.302;2022-10-19T14:45:19;100387.53;;;16.83;94.57
48652;BME280;34442;52.362;-1.302;2022-10-19T14:48:02;100383.97;;;16.82;88.11
48652;BME280;34442;52.362;-1.302;2022-10-19T14:50:48;100379.38;;;16.83;83.36
48652;BME280;34442;52.362;-1.302;2022-10-19T14:59:28;100369.22;;;16.78;86.03
48652;BME280;34442;52.362;-1.302;2022-10-19T15:01:58;100348.84;;;16.76;93.56
48652;BME280;34442;52.362;-1.302;2022-10-19T15:04:29;100360.84;;;16.63;93.35